Time;durP1;ratioP1;P1;durP2;ratioP2;P2;SDS_P1;SDS_P2;PMS_P1;PMS_P2;Temp;Humidity;BMP_temperature;BMP_pressure;BME280_temperature;BME280_humidity;BME280_pressure;Samples;Min_cycle;Max_cycle;Signal;HPM_P1;HPM_P2
2022/09/11 00:00:51;;;;;;;3.00;2.70;;;;;;;11.47;100.00;100499.31;5035237;28;20210;-74
2022/09/11 00:03:18;;;;;;;2.80;2.60;;;;;;;11.41;100.00;100502.94;5025491;28;20669;-74
2022/09/11 00:05:45;;;;;;;3.63;2.80;;;;;;;11.43;100.00;100501.13;5016299;28;20199;-75
2022/09/11 00:08:15;;;;;;;3.07;2.87;;;;;;;11.43;100.00;100508.13;5010377;28;20219;-75
2022/09/11 00:10:44;;;;;;;3.27;2.97;;;;;;;11.39;100.00;100503.91;5009615;28;20205;-75
2022/09/11 00:13:13;;;;;;;3.10;2.77;;;;;;;11.40;100.00;100502.97;5023666;28;20569;-75
2022/09/11 00:15:42;;;;;;;3.37;2.80;;;;;;;11.37;100.00;100504.78;5010612;28;20203;-75
2022/09/11 00:18:11;;;;;;;2.93;2.63;;;;;;;11.35;100.00;100505.75;5008244;28;20248;-74
2022/09/11 00:20:38;;;;;;;3.13;2.70;;;;;;;11.35;100.00;100505.75;5007945;28;20786;-74
2022/09/11 00:23:05;;;;;;;3.13;2.83;;;;;;;11.44;100.00;100508.06;5022749;28;20226;-75
2022/09/11 00:25:33;;;;;;;3.30;2.60;;;;;;;11.37;100.00;100506.56;5020588;28;20206;-75
2022/09/11 00:28:00;;;;;;;2.73;2.37;;;;;;;11.30;100.00;100505.88;5002568;28;20223;-75
2022/09/11 00:30:26;;;;;;;3.50;2.87;;;;;;;11.30;100.00;100508.50;5009090;28;20318;-74
2022/09/11 00:32:53;;;;;;;3.60;3.10;;;;;;;11.35;100.00;100497.94;5023199;28;20194;-75
2022/09/11 00:35:21;;;;;;;2.90;2.63;;;;;;;11.27;100.00;100505.13;5008173;28;20198;-75
2022/09/11 00:37:49;;;;;;;2.97;2.50;;;;;;;11.28;100.00;100499.88;5008606;28;20226;-75
2022/09/11 00:40:16;;;;;;;3.43;2.90;;;;;;;11.24;100.00;100498.25;5013669;28;20202;-75
2022/09/11 00:42:42;;;;;;;2.90;2.70;;;;;;;11.24;100.00;100506.09;5005781;28;20225;-75
2022/09/11 00:45:19;;;;;;;3.47;3.17;;;;;;;11.21;100.00;100505.34;5004751;28;20832;-75
2022/09/11 00:47:46;;;;;;;6.57;2.80;;;;;;;11.25;100.00;100509.56;5005894;28;20227;-75
2022/09/11 00:50:16;;;;;;;3.47;3.13;;;;;;;11.20;100.00;100501.00;5024703;28;20258;-75
2022/09/11 00:52:52;;;;;;;3.87;3.37;;;;;;;11.17;100.00;100496.75;5009671;28;20220;-75
2022/09/11 00:55:21;;;;;;;2.90;2.60;;;;;;;11.18;100.00;100501.91;5017620;28;20569;-75
2022/09/11 00:57:51;;;;;;;3.43;3.13;;;;;;;11.21;100.00;100500.13;5008380;28;20814;-75
2022/09/11 01:00:18;;;;;;;5.13;3.57;;;;;;;11.21;100.00;100505.34;4995929;28;20235;-74
2022/09/11 01:02:47;;;;;;;4.03;3.07;;;;;;;11.20;100.00;100504.47;5004739;28;20222;-73
2022/09/11 01:05:15;;;;;;;3.90;3.50;;;;;;;11.16;100.00;100510.69;5001335;28;20687;-75
2022/09/11 01:07:42;;;;;;;3.37;3.07;;;;;;;11.14;100.00;100513.34;5012044;28;20221;-74
2022/09/11 01:10:11;;;;;;;3.43;2.93;;;;;;;11.12;100.00;100514.31;5014306;28;20218;-75
2022/09/11 01:12:49;;;;;;;3.60;3.17;;;;;;;11.14;100.00;100505.50;5008577;28;20198;-75
2022/09/11 01:15:21;;;;;;;4.47;3.23;;;;;;;11.14;100.00;100509.88;5006741;28;20207;-75
2022/09/11 01:17:59;;;;;;;3.77;3.27;;;;;;;11.15;100.00;100514.19;5009081;28;20700;-75
2022/09/11 01:20:35;;;;;;;3.30;3.00;;;;;;;11.11;100.00;100500.38;5009463;28;20189;-74
2022/09/11 01:23:33;;;;;;;3.50;3.20;;;;;;;11.14;100.00;100502.06;5023250;28;20716;-75
2022/09/11 01:26:35;;;;;;;3.47;3.03;;;;;;;11.16;100.00;100508.91;5007823;28;20744;-73
2022/09/11 01:29:08;;;;;;;4.33;2.80;;;;;;;11.19;100.00;100505.38;5002494;28;20226;-72
2022/09/11 01:31:44;;;;;;;3.47;3.17;;;;;;;11.13;100.00;100503.81;5016565;28;20238;-75
2022/09/11 01:34:20;;;;;;;4.50;3.73;;;;;;;11.10;100.00;100500.41;5006031;28;20269;-75
2022/09/11 01:36:52;;;;;;;4.07;3.40;;;;;;;11.09;100.00;100504.78;5005337;28;20577;-74
2022/09/11 01:39:22;;;;;;;3.50;3.20;;;;;;;11.09;100.00;100514.38;5014881;28;20219;-74
2022/09/11 01:41:52;;;;;;;6.00;3.27;;;;;;;11.04;100.00;100506.69;5019381;28;20293;-74
2022/09/11 01:44:26;;;;;;;3.63;3.10;;;;;;;11.01;100.00;100500.69;5007488;28;20865;-74
2022/09/11 01:46:53;;;;;;;4.23;3.07;;;;;;;11.05;100.00;100502.34;5008510;28;20222;-75
2022/09/11 01:49:24;;;;;;;5.17;3.20;;;;;;;11.01;100.00;100500.69;5020292;28;20361;-74
2022/09/11 01:51:56;;;;;;;3.50;3.20;;;;;;;11.08;100.00;100510.06;4996092;28;20240;-74
2022/09/11 01:54:28;;;;;;;4.30;3.27;;;;;;;11.05;100.00;100510.16;4994950;28;20245;-75
2022/09/11 01:57:01;;;;;;;5.20;3.70;;;;;;;11.08;100.00;100508.31;5008809;28;20212;-75
2022/09/11 01:59:34;;;;;;;6.13;3.77;;;;;;;11.06;100.00;100511.84;4999420;28;20275;-75
2022/09/11 02:02:05;;;;;;;4.33;3.67;;;;;;;11.07;100.00;100510.97;5007474;28;20211;-75
2022/09/11 02:04:39;;;;;;;4.17;3.77;;;;;;;11.05;100.00;100516.22;4995334;28;20225;-75
2022/09/11 02:11:05;;;;;;;4.67;3.33;;;;;;;11.05;100.00;100512.78;5008572;28;20233;-75
2022/09/11 02:13:42;;;;;;;4.00;3.50;;;;;;;11.03;100.00;100505.00;5018890;28;20202;-75
2022/09/11 02:16:16;;;;;;;3.47;3.17;;;;;;;11.02;100.00;100508.47;5016489;28;20212;-75
2022/09/11 02:18:51;;;;;;;4.07;3.67;;;;;;;10.96;100.00;100508.69;5011867;28;20333;-75
2022/09/11 02:21:17;;;;;;;4.33;3.73;;;;;;;10.97;100.00;100508.59;4994877;28;20204;-75
2022/09/11 02:23:44;;;;;;;5.33;3.47;;;;;;;11.03;100.00;100505.00;5003868;28;20219;-75
2022/09/11 02:26:14;;;;;;;3.67;3.27;;;;;;;10.98;100.00;100502.50;5009707;28;20212;-74
2022/09/11 02:28:41;;;;;;;3.77;3.37;;;;;;;10.98;100.00;100504.28;5001037;28;20218;-74
2022/09/11 02:31:07;;;;;;;4.40;3.50;;;;;;;10.95;100.00;100499.97;5008554;28;20213;-75
2022/09/11 02:33:37;;;;;;;4.60;3.43;;;;;;;11.01;100.00;100500.69;5007172;28;20324;-75
2022/09/11 02:36:21;;;;;;;4.17;3.77;;;;;;;10.99;100.00;100504.22;5007458;28;20204;-75
2022/09/11 02:38:58;;;;;;;4.50;3.57;;;;;;;11.00;100.00;100502.47;5005078;28;20320;-73
2022/09/11 02:41:30;;;;;;;3.53;3.23;;;;;;;10.90;100.00;100501.03;4999903;28;20211;-74
2022/09/11 02:44:07;;;;;;;4.50;3.43;;;;;;;10.84;100.00;100506.44;5004885;28;20577;-75
2022/09/11 02:46:54;;;;;;;4.63;4.00;;;;;;;10.83;100.00;100497.72;5003020;28;20550;-75
2022/09/11 02:49:31;;;;;;;3.50;3.20;;;;;;;10.80;100.00;100506.50;5005788;28;20276;-75
2022/09/11 02:52:07;;;;;;;5.60;3.77;;;;;;;10.82;100.00;100509.09;4998662;28;20616;-75
2022/09/11 02:54:43;;;;;;;3.80;3.20;;;;;;;10.76;100.00;100514.47;5010406;28;20663;-75
2022/09/11 02:57:18;;;;;;;3.93;3.17;;;;;;;10.85;100.00;100510.72;5006597;28;20220;-75
2022/09/11 02:59:52;;;;;;;3.37;2.73;;;;;;;10.78;100.00;100505.72;5026429;28;20773;-75
2022/09/11 03:02:19;;;;;;;4.27;3.50;;;;;;;10.76;100.00;100506.63;4995011;28;20649;-75
2022/09/11 03:04:51;;;;;;;4.93;3.57;;;;;;;10.73;100.00;100512.81;5006198;28;20211;-74
2022/09/11 03:07:18;;;;;;;4.13;3.67;;;;;;;10.71;100.00;100504.19;5031418;28;20726;-74
2022/09/11 03:09:45;;;;;;;4.67;3.70;;;;;;;10.68;100.00;100508.63;5018823;28;20218;-74
2022/09/11 03:12:19;;;;;;;4.40;3.67;;;;;;;10.65;100.00;100512.16;4998942;28;20299;-75
2022/09/11 03:14:48;;;;;;;3.93;3.57;;;;;;;10.68;100.00;100514.69;5015824;28;20201;-74
2022/09/11 03:17:15;;;;;;;4.90;3.30;;;;;;;10.72;100.00;100516.31;5008782;28;20231;-75
2022/09/11 03:19:42;;;;;;;3.80;3.40;;;;;;;10.69;100.00;100511.16;5010329;28;20300;-74
2022/09/11 03:22:09;;;;;;;4.37;3.60;;;;;;;10.67;100.00;100515.56;5014096;28;20196;-74
2022/09/11 03:24:36;;;;;;;3.53;3.23;;;;;;;10.66;100.00;100518.22;5015894;28;20208;-73
2022/09/11 03:27:03;;;;;;;4.50;3.57;;;;;;;10.64;100.00;100533.06;5035537;28;20300;-73
2022/09/11 03:29:30;;;;;;;4.50;3.40;;;;;;;10.56;100.00;100525.47;5020384;28;20736;-74
2022/09/11 03:31:57;;;;;;;4.50;3.60;;;;;;;10.62;100.00;100525.28;4999422;28;20200;-74
2022/09/11 03:34:24;;;;;;;4.10;3.70;;;;;;;10.58;100.00;100523.66;5008965;28;20288;-75
2022/09/11 03:36:50;;;;;;;6.03;3.20;;;;;;;10.56;100.00;100520.25;4997906;28;20210;-73
2022/09/11 03:39:19;;;;;;;3.73;3.10;;;;;;;10.54;100.00;100529.88;4999630;28;20276;-75
2022/09/11 03:41:45;;;;;;;3.50;3.17;;;;;;;10.48;100.00;100532.63;4998918;28;20201;-75
2022/09/11 03:44:12;;;;;;;5.33;3.30;;;;;;;10.54;100.00;100532.47;5003352;28;20217;-74
2022/09/11 03:46:38;;;;;;;5.00;3.50;;;;;;;10.52;100.00;100531.66;5016420;28;20215;-75
2022/09/11 03:49:05;;;;;;;4.37;3.97;;;;;;;10.46;100.00;100534.44;5026493;28;20747;-75
2022/09/11 03:51:32;;;;;;;3.40;3.03;;;;;;;10.47;100.00;100530.94;5009979;28;20206;-75
2022/09/11 03:54:00;;;;;;;4.03;3.27;;;;;;;10.47;100.00;100534.38;5016694;28;20243;-75
2022/09/11 03:56:29;;;;;;;3.40;3.10;;;;;;;10.51;100.00;100524.72;5025710;28;20209;-75
2022/09/11 03:58:57;;;;;;;3.87;3.17;;;;;;;10.48;100.00;100528.25;5002753;28;20236;-75
2022/09/11 04:01:25;;;;;;;4.07;3.43;;;;;;;10.56;100.00;100528.06;5010727;28;20230;-74
2022/09/11 04:03:52;;;;;;;4.60;3.80;;;;;;;10.46;100.00;100530.06;5009663;28;20719;-75
2022/09/11 04:06:28;;;;;;;3.23;2.93;;;;;;;10.45;100.00;100530.97;5009309;28;20216;-75
2022/09/11 04:08:55;;;;;;;6.00;4.13;;;;;;;10.43;100.00;100530.16;5016619;28;20314;-75
2022/09/11 04:11:22;;;;;;;3.90;3.43;;;;;;;10.52;100.00;100527.31;5016319;28;20210;-75
2022/09/11 04:13:51;;;;;;;4.33;3.63;;;;;;;10.46;100.00;100534.44;5010407;28;20244;-74
2022/09/11 04:16:20;;;;;;;4.20;3.70;;;;;;;10.44;100.00;100544.03;5022666;28;20229;-75
2022/09/11 04:18:53;;;;;;;3.93;3.50;;;;;;;10.52;100.00;100542.94;5010388;28;20224;-74
2022/09/11 04:21:20;;;;;;;4.00;3.33;;;;;;;10.55;100.00;100536.78;5029805;28;20230;-75
2022/09/11 04:23:52;;;;;;;6.10;3.67;;;;;;;10.55;100.00;100532.44;5026203;28;20225;-75
2022/09/11 04:26:20;;;;;;;3.87;3.47;;;;;;;10.52;100.00;100540.34;5008480;28;20221;-75
2022/09/11 04:28:52;;;;;;;4.20;3.60;;;;;;;10.56;100.00;100541.94;5004818;28;20261;-75
2022/09/11 04:31:21;;;;;;;4.90;3.63;;;;;;;10.55;100.00;100542.00;5016609;28;20196;-74
2022/09/11 04:33:48;;;;;;;3.43;3.03;;;;;;;10.59;100.00;100544.47;5014819;28;20476;-74
2022/09/11 04:36:17;;;;;;;4.37;3.77;;;;;;;10.67;100.00;100543.41;5009702;28;20719;-75
2022/09/11 04:38:44;;;;;;;5.43;3.80;;;;;;;10.76;100.00;100550.97;5013852;28;20268;-75
2022/09/11 04:41:13;;;;;;;4.73;3.90;;;;;;;10.84;100.00;100545.56;5009654;28;20213;-75
2022/09/11 04:43:41;;;;;;;5.63;4.57;;;;;;;10.94;100.00;100546.97;5008396;28;20309;-75
2022/09/11 04:46:13;;;;;;;5.77;3.70;;;;;;;10.96;100.00;100553.03;5021884;28;20608;-75
2022/09/11 04:48:45;;;;;;;4.63;3.80;;;;;;;11.04;100.00;100547.56;5001484;28;20338;-75
2022/09/11 04:51:20;;;;;;;4.90;4.23;;;;;;;11.06;100.00;100545.78;5007181;28;20204;-75
2022/09/11 04:53:47;;;;;;;6.33;4.47;;;;;;;11.14;100.00;100559.47;5008527;28;20234;-75
2022/09/11 04:56:16;;;;;;;5.97;4.47;;;;;;;11.23;100.00;100558.34;5000773;28;20204;-75
2022/09/11 04:58:46;;;;;;;7.43;5.23;;;;;;;11.28;100.00;100561.66;5008437;28;20263;-75
2022/09/11 05:01:16;;;;;;;4.73;4.13;;;;;;;11.21;100.00;100565.34;5000173;28;20200;-75
2022/09/11 05:03:47;;;;;;;5.83;4.93;;;;;;;11.23;100.00;100568.78;5009509;28;20325;-74
2022/09/11 05:06:15;;;;;;;6.70;5.27;;;;;;;11.27;100.00;100565.16;5017618;28;20207;-74
2022/09/11 05:08:43;;;;;;;5.90;5.03;;;;;;;11.34;100.00;100577.13;5017929;28;20223;-75
2022/09/11 05:11:12;;;;;;;9.47;6.17;;;;;;;11.44;100.00;100585.56;5009103;28;20203;-75
2022/09/11 05:13:39;;;;;;;9.90;7.10;;;;;;;11.46;100.00;100589.81;5019655;28;20673;-75
2022/09/11 05:16:06;;;;;;;11.90;6.70;;;;;;;11.54;100.00;100589.59;5006319;28;20253;-75
2022/09/11 05:18:35;;;;;;;14.67;7.70;;;;;;;11.56;100.00;100598.22;5021811;28;20730;-76
2022/09/11 05:21:04;;;;;;;12.37;7.50;;;;;;;11.65;100.00;100599.69;5011548;28;20660;-73
2022/09/11 05:23:31;;;;;;;14.30;7.70;;;;;;;11.70;100.00;100598.66;5017041;28;20201;-73
2022/09/11 05:26:00;;;;;;;8.87;6.53;;;;;;;11.78;100.00;100603.63;4999024;28;20502;-75
2022/09/11 05:28:28;;;;;;;13.23;7.77;;;;;;;11.86;100.00;100608.63;5010187;28;20666;-75
2022/09/11 05:30:55;;;;;;;14.10;8.50;;;;;;;11.91;100.00;100611.97;5010049;28;20881;-75
2022/09/11 05:33:25;;;;;;;13.37;7.83;;;;;;;11.98;100.00;100616.09;5007099;28;20207;-75
2022/09/11 05:35:53;;;;;;;14.20;8.43;;;;;;;11.92;100.00;100622.38;5008998;28;20793;-75
2022/09/11 05:38:23;;;;;;;16.10;10.07;;;;;;;11.91;100.00;100627.66;5009508;28;20615;-75
2022/09/11 05:40:51;;;;;;;15.70;9.77;;;;;;;11.92;100.00;100622.38;5017123;28;20201;-75
2022/09/11 05:43:21;;;;;;;14.00;9.17;;;;;;;11.92;100.00;100631.97;5005523;28;20211;-75
2022/09/11 05:45:54;;;;;;;15.10;8.57;;;;;;;11.95;100.00;100631.03;5006157;28;20204;-75
2022/09/11 05:48:21;;;;;;;12.80;8.27;;;;;;;12.00;100.00;100632.59;5005990;28;20227;-75
2022/09/11 05:50:53;;;;;;;16.00;9.60;;;;;;;12.02;100.00;100643.84;5007912;28;20290;-75
2022/09/11 05:53:21;;;;;;;12.00;8.33;;;;;;;12.06;100.00;100647.19;5002293;28;20577;-75
2022/09/11 05:55:48;;;;;;;14.37;8.40;;;;;;;12.11;100.00;100651.38;5009497;28;20656;-73
2022/09/11 05:58:17;;;;;;;12.60;8.60;;;;;;;12.12;100.00;100657.47;5000183;28;20212;-74
2022/09/11 06:00:45;;;;;;;16.60;8.40;;;;;;;12.10;100.00;100654.03;5005498;28;20212;-74
2022/09/11 06:03:12;;;;;;;14.53;7.97;;;;;;;12.23;100.00;100652.75;5005902;28;20616;-74
2022/09/11 06:05:39;;;;;;;18.07;9.23;;;;;;;12.29;100.00;100660.41;4999869;28;20217;-74
2022/09/11 06:08:08;;;;;;;16.93;8.73;;;;;;;12.37;100.00;100662.75;5004762;28;21555;-74
2022/09/11 06:10:35;;;;;;;12.00;8.40;;;;;;;12.36;100.00;100670.66;4999025;28;20200;-74
2022/09/11 06:13:02;;;;;;;11.83;8.07;;;;;;;12.37;100.00;100677.59;5005223;28;20197;-77
2022/09/11 06:15:31;;;;;;;14.17;8.23;;;;;;;12.42;100.00;100670.47;4997997;28;20609;-73
2022/09/11 06:17:58;;;;;;;16.63;9.43;;;;;;;12.39;100.00;100686.25;5022731;28;20283;-75
2022/09/11 06:20:26;;;;;;;18.60;9.43;;;;;;;12.35;100.00;100677.66;5022143;28;20203;-75
2022/09/11 06:22:53;;;;;;;14.17;8.60;;;;;;;12.35;100.00;100674.16;5006018;28;20319;-74
2022/09/11 06:25:21;;;;;;;15.30;8.37;;;;;;;12.31;100.00;100683.84;5010887;28;20789;-74
2022/09/11 06:27:48;;;;;;;16.33;8.13;;;;;;;12.30;100.00;100674.31;4997520;28;20292;-75
2022/09/11 06:30:16;;;;;;;11.27;8.00;;;;;;;12.41;100.00;100687.03;5018356;28;20200;-75
2022/09/11 06:32:43;;;;;;;13.70;7.90;;;;;;;12.47;100.00;100679.84;5001274;28;20560;-74
2022/09/11 06:35:10;;;;;;;13.27;8.43;;;;;;;12.53;100.00;100681.41;5007366;28;20195;-75
2022/09/11 06:37:37;;;;;;;15.83;8.40;;;;;;;12.57;100.00;100690.84;4997252;28;20298;-74
2022/09/11 06:40:03;;;;;;;15.73;8.23;;;;;;;12.62;100.00;100686.31;5023082;28;20681;-73
2022/09/11 06:42:32;;;;;;;20.07;8.97;;;;;;;12.63;100.00;100700.28;4999685;28;21558;-74
2022/09/11 06:45:01;;;;;;;14.60;8.57;;;;;;;12.65;100.00;100696.69;5005752;28;20686;-75
2022/09/11 06:47:30;;;;;;;12.97;8.23;;;;;;;12.75;100.00;100699.88;5016677;28;20684;-73
2022/09/11 06:49:56;;;;;;;14.77;8.83;;;;;;;12.84;100.00;100703.91;5002507;28;20207;-75
2022/09/11 06:52:34;;;;;;;18.30;9.23;;;;;;;12.87;100.00;100701.19;5008068;28;20196;-74
2022/09/11 06:55:13;;;;;;;16.53;9.00;;;;;;;12.93;100.00;100693.13;5009088;28;20217;-72
2022/09/11 06:57:41;;;;;;;17.33;9.93;;;;;;;13.00;100.00;100699.00;5009343;28;20675;-75
2022/09/11 07:00:11;;;;;;;18.40;10.00;;;;;;;13.00;100.00;100694.63;5012058;28;20197;-75
2022/09/11 07:02:41;;;;;;;18.13;9.23;;;;;;;12.96;100.00;100706.09;5008228;28;20701;-74
2022/09/11 07:05:09;;;;;;;18.70;9.83;;;;;;;13.04;100.00;100705.84;5022845;28;20214;-75
2022/09/11 07:07:38;;;;;;;16.30;8.20;;;;;;;13.06;100.00;100707.47;5007261;28;20239;-74
2022/09/11 07:10:08;;;;;;;16.90;9.30;;;;;;;12.98;100.00;100703.41;5024113;28;20286;-75
2022/09/11 07:12:34;;;;;;;15.73;8.90;;;;;;;12.99;100.00;100711.22;5016927;28;20208;-73
2022/09/11 07:15:03;;;;;;;18.37;10.70;;;;;;;13.07;100.00;100711.81;5027951;23;20200;-76
2022/09/11 07:17:29;;;;;;;16.77;8.73;;;;;;;13.12;100.00;100714.28;4994265;28;20676;-76
2022/09/11 07:19:56;;;;;;;17.93;9.80;;;;;;;13.15;100.00;100719.38;4993784;28;20206;-76
2022/09/11 07:22:22;;;;;;;17.73;9.73;;;;;;;13.18;100.00;100713.22;4993763;28;20206;-75
2022/09/11 07:24:51;;;;;;;13.77;8.63;;;;;;;13.33;100.00;100710.09;4989672;28;20223;-75
2022/09/11 07:27:18;;;;;;;16.70;10.40;;;;;;;13.44;100.00;100707.06;4992795;28;20227;-76
2022/09/11 07:29:45;;;;;;;14.57;9.77;;;;;;;13.49;100.00;100707.75;4995926;23;20250;-71
2022/09/11 07:32:13;;;;;;;15.57;8.87;;;;;;;13.59;100.00;100703.84;4977846;28;20204;-70
2022/09/11 07:34:40;;;;;;;15.03;9.27;;;;;;;13.62;100.00;100716.00;4977777;28;20579;-71
2022/09/11 07:37:09;;;;;;;14.73;8.87;;;;;;;13.66;100.00;100714.13;4984918;28;20188;-71
2022/09/11 07:39:37;;;;;;;13.47;9.00;;;;;;;13.68;100.00;100720.16;4997749;28;20765;-70
2022/09/11 07:42:08;;;;;;;13.30;8.07;;;;;;;13.75;100.00;100717.22;4996902;28;20207;-71
2022/09/11 07:44:36;;;;;;;12.13;8.53;;;;;;;13.72;100.00;100716.50;4983117;28;20202;-71
2022/09/11 07:47:04;;;;;;;11.80;7.03;;;;;;;13.80;100.00;100712.69;4981597;28;20621;-71
2022/09/11 07:49:37;;;;;;;10.03;7.33;;;;;;;13.86;100.00;100713.34;4985279;28;20225;-70
2022/09/11 07:52:04;;;;;;;14.13;7.67;;;;;;;13.89;100.00;100708.00;4983242;28;20232;-70
2022/09/11 07:54:39;;;;;;;10.40;6.43;;;;;;;13.93;100.00;100720.06;4982230;28;20719;-70
2022/09/11 07:57:06;;;;;;;14.13;7.30;;;;;;;13.89;100.00;100713.25;4980951;28;20212;-69
2022/09/11 07:59:32;;;;;;;10.53;7.23;;;;;;;13.86;100.00;100716.84;4982861;28;20587;-71
2022/09/11 08:01:59;;;;;;;11.30;6.57;;;;;;;13.94;100.00;100720.00;4983505;28;20748;-70
2022/09/11 08:04:25;;;;;;;10.63;6.70;;;;;;;13.97;100.00;100724.28;4983050;28;20259;-71
2022/09/11 08:06:55;;;;;;;10.47;6.83;;;;;;;14.06;100.00;100723.94;4982763;28;20212;-71
2022/09/11 08:09:27;;;;;;;10.83;7.07;;;;;;;14.07;100.00;100727.41;4983574;28;20209;-71
2022/09/11 08:11:57;;;;;;;11.83;7.53;;;;;;;14.01;100.00;100737.22;4983909;28;20392;-70
2022/09/11 08:14:26;;;;;;;11.87;7.17;;;;;;;14.03;100.00;100737.16;4985008;28;20244;-70
2022/09/11 08:16:53;;;;;;;13.27;7.40;;;;;;;13.94;100.00;100725.25;4999124;28;20752;-71
2022/09/11 08:19:23;;;;;;;11.50;7.30;;;;;;;14.03;100.00;100726.66;4984330;28;20217;-71
2022/09/11 08:21:55;;;;;;;12.90;7.60;;;;;;;14.11;100.00;100734.25;4998841;28;20285;-70
2022/09/11 08:24:23;;;;;;;10.10;7.37;;;;;;;14.21;100.00;100740.81;4981557;28;20259;-71
2022/09/11 08:26:51;;;;;;;16.63;8.00;;;;;;;14.25;100.00;100741.56;4999176;28;20779;-71
2022/09/11 08:29:19;;;;;;;12.73;8.07;;;;;;;14.32;100.00;100745.66;4982892;28;20346;-70
2022/09/11 08:31:46;;;;;;;11.30;6.93;;;;;;;14.29;100.00;100744.00;4983679;28;20304;-70
2022/09/11 08:34:14;;;;;;;11.20;6.90;;;;;;;14.28;100.00;100749.31;4978961;28;20579;-70
2022/09/11 08:36:40;;;;;;;12.37;7.13;;;;;;;14.23;100.00;100753.88;4983782;28;20303;-69
2022/09/11 08:39:09;;;;;;;11.30;6.93;;;;;;;14.33;100.00;100756.06;4981783;28;20488;-71
2022/09/11 08:41:47;;;;;;;9.80;6.50;;;;;;;14.44;100.00;100760.91;4985438;28;20201;-71
2022/09/11 08:44:18;;;;;;;9.20;6.30;;;;;;;14.42;100.00;100762.72;4982765;28;20259;-71
2022/09/11 08:46:47;;;;;;;10.80;7.40;;;;;;;14.34;100.00;100762.19;4984354;28;20194;-70
2022/09/11 08:49:21;;;;;;;9.87;6.43;;;;;;;14.36;100.00;100761.19;4984534;28;20235;-70
2022/09/11 08:51:48;;;;;;;10.67;6.77;;;;;;;14.52;100.00;100763.22;4980746;28;21960;-70
2022/09/11 08:54:26;;;;;;;11.27;7.37;;;;;;;14.67;100.00;100761.75;4980276;28;20568;-70
2022/09/11 08:57:05;;;;;;;10.20;6.87;;;;;;;14.85;100.00;100766.25;4981728;28;20214;-70
2022/09/11 08:59:43;;;;;;;11.20;6.80;;;;;;;14.92;100.00;100772.97;4982995;28;20252;-70
2022/09/11 09:02:25;;;;;;;10.07;6.70;;;;;;;14.98;100.00;100774.47;4983220;28;20283;-69
2022/09/11 09:05:13;;;;;;;10.67;6.50;;;;;;;14.85;100.00;100778.53;4982776;28;20653;-71
2022/09/11 09:07:51;;;;;;;11.27;7.13;;;;;;;14.74;100.00;100781.59;4995134;28;20229;-69
2022/09/11 09:10:34;;;;;;;10.37;7.33;;;;;;;14.70;100.00;100782.63;4979639;28;21103;-70
2022/09/11 09:13:15;;;;;;;10.13;6.97;;;;;;;14.74;100.00;100786.84;4981829;28;20197;-70
2022/09/11 09:15:53;;;;;;;14.17;8.33;;;;;;;14.85;100.00;100795.13;4979593;28;20247;-70
2022/09/11 09:18:31;;;;;;;11.30;6.90;;;;;;;14.83;100.00;100785.59;4982146;28;20205;-70
2022/09/11 09:21:04;;;;;;;7.87;6.03;;;;;;;14.91;100.00;100794.03;4980097;28;20209;-70
2022/09/11 09:23:38;;;;;;;9.50;6.87;;;;;;;14.88;100.00;100792.38;4980928;28;20212;-71
2022/09/11 09:26:14;;;;;;;10.37;6.93;;;;;;;14.84;100.00;100788.16;4982109;28;20248;-70
2022/09/11 09:28:45;;;;;;;9.97;6.77;;;;;;;14.92;100.00;100788.72;4984806;28;20335;-71
2022/09/11 09:31:15;;;;;;;10.23;6.50;;;;;;;14.97;100.00;100791.16;4983353;28;20197;-71
2022/09/11 09:33:48;;;;;;;10.77;6.67;;;;;;;14.97;100.00;100793.78;4986289;28;20196;-70
2022/09/11 09:36:18;;;;;;;7.50;5.53;;;;;;;15.00;100.00;100792.78;4984782;28;20223;-71
2022/09/11 09:38:45;;;;;;;9.43;6.00;;;;;;;15.06;100.00;100797.78;4984767;28;20287;-71
2022/09/11 09:41:48;;;;;;;9.57;6.67;;;;;;;15.01;100.00;100795.34;5002588;28;20236;-70
2022/09/11 09:44:26;;;;;;;8.67;6.07;;;;;;;15.01;100.00;100800.59;4982869;28;20776;-70
2022/09/11 09:46:54;;;;;;;9.27;6.43;;;;;;;15.00;100.00;100806.75;4997215;28;20231;-70
2022/09/11 09:49:25;;;;;;;9.17;6.07;;;;;;;15.03;100.00;100803.16;5000276;28;20562;-70
2022/09/11 09:51:54;;;;;;;11.40;6.47;;;;;;;15.04;100.00;100808.34;5000167;28;20200;-71
2022/09/11 09:54:25;;;;;;;9.10;5.87;;;;;;;15.08;100.00;100809.94;4984326;28;20199;-71
2022/09/11 09:56:58;;;;;;;8.97;6.87;;;;;;;15.19;100.00;100806.00;4999099;28;20707;-71
2022/09/11 09:59:31;;;;;;;10.57;6.93;;;;;;;15.25;100.00;100814.47;4999169;28;20228;-70
2022/09/11 10:01:58;;;;;;;10.70;7.53;;;;;;;15.31;100.00;100814.19;4998192;28;21356;-71
2022/09/11 10:04:26;;;;;;;9.47;6.07;;;;;;;15.40;100.00;100812.09;4979921;28;20678;-70
2022/09/11 10:07:04;;;;;;;10.40;6.90;;;;;;;15.52;100.00;100817.66;4999473;28;20403;-70
2022/09/11 10:09:31;;;;;;;10.60;7.00;;;;;;;15.58;100.00;100813.91;4999635;28;20220;-71
2022/09/11 10:12:02;;;;;;;9.27;6.53;;;;;;;15.63;100.00;100819.81;4996614;28;20427;-70
2022/09/11 10:14:32;;;;;;;9.63;7.00;;;;;;;15.63;100.00;100818.97;4999250;28;20193;-70
2022/09/11 10:16:59;;;;;;;8.53;5.67;;;;;;;15.62;100.00;100818.13;4998597;28;20266;-70
2022/09/11 10:19:38;;;;;;;10.73;6.57;;;;;;;15.62;100.00;100826.03;4998875;28;20224;-70
2022/09/11 10:22:26;;;;;;;8.70;6.37;;;;;;;15.51;100.00;100813.34;4999533;28;20193;-71
2022/09/11 10:25:00;;;;;;;11.33;6.50;;;;;;;15.54;100.00;100820.25;4995300;28;20200;-71
2022/09/11 10:27:31;;;;;;;10.17;6.57;;;;;;;15.61;100.00;100810.31;5003914;28;20196;-69
2022/09/11 10:29:57;;;;;;;9.97;6.83;;;;;;;15.75;100.00;100821.09;5006532;28;20576;-70
2022/09/11 10:32:25;;;;;;;9.13;6.33;;;;;;;15.94;100.00;100809.75;5005508;28;20650;-71
2022/09/11 10:34:52;;;;;;;10.70;6.93;;;;;;;16.14;100.00;100814.09;5001019;28;20207;-69
2022/09/11 10:37:24;;;;;;;12.40;7.30;;;;;;;16.39;100.00;100814.66;4999214;28;20216;-70
2022/09/11 10:39:51;;;;;;;10.30;7.17;;;;;;;16.57;100.00;100817.31;4990539;28;20275;-70
2022/09/11 10:42:22;;;;;;;10.67;6.60;;;;;;;16.73;100.00;100818.31;5004058;28;20433;-71
2022/09/11 10:44:52;;;;;;;10.13;6.50;;;;;;;16.65;100.00;100825.72;5001181;28;20688;-71
2022/09/11 10:47:24;;;;;;;9.40;6.60;;;;;;;16.72;100.00;100828.91;5002094;28;20193;-71
2022/09/11 10:50:10;;;;;;;9.03;6.17;;;;;;;16.66;100.00;100824.78;5004783;28;20224;-70
2022/09/11 10:52:48;;;;;;;9.73;6.07;;;;;;;16.76;100.00;100822.56;5004396;28;20279;-71
2022/09/11 10:55:16;;;;;;;11.00;6.13;;;;;;;16.88;100.00;100826.41;5003015;28;20200;-71
2022/09/11 10:57:44;;;;;;;9.93;6.17;;;;;;;16.89;100.00;100836.88;5004660;28;20251;-71
2022/09/11 11:00:19;;;;;;;8.83;5.83;;;;;;;16.96;100.00;100830.38;5004327;28;20213;-71
2022/09/11 11:02:48;;;;;;;7.63;5.67;;;;;;;17.09;100.00;100833.22;4998607;28;20204;-70
2022/09/11 11:05:23;;;;;;;6.87;5.63;;;;;;;17.13;100.00;100829.53;5000128;28;20275;-69
2022/09/11 11:08:12;;;;;;;9.17;5.90;;;;;;;17.25;100.00;100838.56;5004102;28;20564;-70
2022/09/11 11:10:51;;;;;;;9.23;5.80;;;;;;;17.30;100.00;100833.94;5005695;28;20294;-70
2022/09/11 11:13:34;;;;;;;8.10;5.63;;;;;;;17.44;100.00;100833.22;5005822;28;20585;-71
2022/09/11 11:16:10;;;;;;;9.90;6.43;;;;;;;17.59;100.00;100827.16;5004628;28;20216;-70
2022/09/11 11:18:53;;;;;;;7.43;4.77;;;;;;;17.79;100.00;100827.91;5005510;28;20235;-70
2022/09/11 11:21:31;;;;;;;8.03;5.60;;;;;;;18.11;100.00;100830.63;5001305;28;20207;-71
2022/09/11 11:24:14;;;;;;;7.83;5.87;;;;;;;18.27;100.00;100839.38;5005201;28;20631;-71
2022/09/11 11:26:51;;;;;;;5.67;4.73;;;;;;;18.32;100.00;100849.72;4988367;28;20200;-70
2022/09/11 11:29:33;;;;;;;6.47;4.60;;;;;;;18.35;100.00;100844.28;4999067;28;20256;-71
2022/09/11 11:32:15;;;;;;;8.23;4.83;;;;;;;18.33;100.00;100849.63;4988722;28;20674;-70
2022/09/11 11:35:00;;;;;;;6.97;3.93;;;;;;;18.16;100.00;100855.81;4984807;28;20197;-69